createdAt,value
2023-05-09T00:01:50.576Z,19.37
2023-05-09T00:04:17.999Z,19.23
2023-05-09T00:06:45.916Z,20.87
2023-05-09T00:09:13.294Z,22.50
2023-05-09T00:11:40.972Z,22.73
2023-05-09T00:14:08.607Z,24.00
2023-05-09T00:16:36.845Z,25.03
2023-05-09T00:19:04.770Z,24.83
2023-05-09T00:21:32.318Z,26.97
2023-05-09T00:24:00.530Z,26.60
2023-05-09T00:26:28.152Z,23.50
2023-05-09T00:28:55.592Z,21.83
2023-05-09T00:31:22.958Z,21.33
2023-05-09T00:33:50.575Z,19.83
2023-05-09T00:36:17.961Z,19.93
2023-05-09T00:38:45.361Z,20.83
2023-05-09T00:41:12.740Z,20.20
2023-05-09T00:43:40.363Z,18.73
2023-05-09T00:46:08.905Z,18.87
2023-05-09T00:48:37.500Z,19.67
2023-05-09T00:51:05.365Z,19.97
2023-05-09T00:53:33.082Z,19.20
2023-05-09T00:56:01.516Z,19.17
2023-05-09T00:58:29.078Z,18.83
2023-05-09T01:00:56.500Z,20.33
2023-05-09T01:03:24.086Z,19.30
2023-05-09T01:06:20.866Z,19.73
2023-05-09T01:08:54.953Z,19.67
2023-05-09T01:11:40.306Z,20.30
2023-05-09T01:14:21.338Z,20.57
2023-05-09T01:16:55.319Z,19.73
2023-05-09T01:19:37.323Z,20.80
2023-05-09T01:22:08.804Z,19.63
2023-05-09T01:24:56.537Z,19.87
2023-05-09T01:27:45.297Z,20.13
2023-05-09T01:30:14.029Z,19.97
2023-05-09T01:32:43.768Z,21.83
2023-05-09T01:35:14.405Z,22.03
2023-05-09T01:37:43.659Z,22.93
2023-05-09T01:40:16.841Z,22.60
2023-05-09T01:42:46.256Z,23.40
2023-05-09T01:45:14.684Z,23.20
2023-05-09T01:47:42.431Z,22.53
2023-05-09T01:50:11.888Z,23.20
2023-05-09T01:52:41.086Z,22.57
2023-05-09T01:55:09.533Z,22.40
2023-05-09T01:57:37.837Z,22.50
2023-05-09T02:00:08.194Z,22.30
2023-05-09T02:02:40.831Z,21.90
2023-05-09T02:05:10.297Z,20.87
2023-05-09T02:07:38.315Z,21.80
2023-05-09T02:10:06.469Z,22.07
2023-05-09T02:12:34.757Z,20.90
2023-05-09T02:15:02.380Z,21.30
2023-05-09T02:17:32.463Z,21.17
2023-05-09T02:20:00.021Z,22.67
2023-05-09T02:22:27.635Z,22.60
2023-05-09T02:24:55.013Z,22.70
2023-05-09T02:27:22.627Z,22.87
2023-05-09T02:29:51.506Z,21.97
2023-05-09T02:32:24.159Z,22.63
2023-05-09T02:34:53.526Z,22.77
2023-05-09T02:37:21.661Z,23.37
2023-05-09T02:39:49.049Z,22.63
2023-05-09T02:42:21.949Z,23.47
2023-05-09T02:44:49.346Z,23.17
2023-05-09T02:47:16.717Z,23.47
2023-05-09T02:49:44.820Z,22.50
2023-05-09T02:52:13.186Z,21.77
2023-05-09T02:54:40.693Z,21.67
2023-05-09T02:57:08.103Z,23.00
2023-05-09T02:59:35.718Z,23.07
2023-05-09T03:02:03.941Z,22.10
2023-05-09T03:04:31.969Z,22.93
2023-05-09T03:07:00.049Z,23.20
2023-05-09T03:09:31.893Z,21.70
2023-05-09T03:11:59.356Z,22.47
2023-05-09T03:14:26.865Z,23.17
2023-05-09T03:16:55.452Z,22.57
2023-05-09T03:19:31.457Z,22.93
2023-05-09T03:21:59.527Z,22.77
2023-05-09T03:24:31.089Z,22.50
2023-05-09T03:26:58.427Z,22.37
2023-05-09T03:29:26.267Z,22.97
2023-05-09T03:31:54.765Z,23.17
2023-05-09T03:34:22.236Z,22.10
2023-05-09T03:36:49.644Z,23.77
2023-05-09T03:39:17.121Z,22.70
2023-05-09T03:41:48.909Z,22.87
2023-05-09T03:44:16.408Z,22.30
2023-05-09T03:46:43.884Z,22.03
2023-05-09T03:49:11.460Z,22.53
2023-05-09T03:51:41.390Z,21.40
2023-05-09T03:54:14.029Z,22.03
2023-05-09T03:56:41.594Z,22.17
2023-05-09T03:59:09.919Z,20.23
2023-05-09T04:01:40.023Z,21.70
2023-05-09T04:04:08.684Z,20.87
2023-05-09T04:06:37.684Z,22.00
2023-05-09T04:09:07.455Z,21.60
2023-05-09T04:11:35.269Z,20.37
2023-05-09T04:14:07.308Z,19.87
2023-05-09T04:16:36.719Z,17.97
2023-05-09T04:19:05.120Z,18.03
2023-05-09T04:21:32.617Z,17.53
2023-05-09T04:24:02.189Z,17.30
2023-05-09T04:26:38.507Z,18.90
2023-05-09T04:29:08.988Z,17.90
2023-05-09T04:31:36.933Z,18.00
2023-05-09T04:34:05.415Z,17.40
2023-05-09T04:36:35.294Z,16.30
2023-05-09T04:39:05.250Z,16.05
2023-05-09T04:41:35.040Z,16.40
2023-05-09T04:44:02.429Z,16.02
2023-05-09T04:46:30.495Z,16.17
2023-05-09T04:48:58.568Z,16.58
2023-05-09T04:51:26.978Z,16.02
2023-05-09T04:53:54.486Z,16.60
2023-05-09T04:56:26.502Z,15.80
2023-05-09T04:58:54.063Z,16.42
2023-05-09T05:01:21.563Z,15.93
2023-05-09T05:03:49.869Z,15.52
2023-05-09T05:06:17.391Z,15.60
2023-05-09T05:08:45.121Z,15.38
2023-05-09T05:11:13.755Z,15.02
2023-05-09T05:13:41.323Z,14.77
2023-05-09T05:16:09.184Z,14.82
2023-05-09T05:18:36.666Z,15.20
2023-05-09T05:21:04.940Z,14.85
2023-05-09T05:23:32.363Z,15.80
2023-05-09T05:25:59.937Z,15.15
2023-05-09T05:28:28.636Z,15.35
2023-05-09T05:30:56.133Z,15.65
2023-05-09T05:33:23.504Z,15.85
2023-05-09T05:35:51.763Z,16.02
2023-05-09T05:38:19.118Z,15.35
2023-05-09T05:40:50.604Z,14.40
2023-05-09T05:43:18.639Z,15.45
2023-05-09T05:45:46.193Z,14.82
2023-05-09T05:48:17.478Z,15.50
2023-05-09T05:50:46.509Z,15.48
2023-05-09T05:53:17.173Z,14.48
2023-05-09T05:55:46.109Z,14.35
2023-05-09T05:58:14.250Z,14.73
2023-05-09T06:00:41.683Z,14.38
2023-05-09T06:03:14.231Z,15.27
2023-05-09T06:05:48.485Z,14.02
2023-05-09T06:08:16.665Z,13.80
2023-05-09T06:10:44.453Z,14.60
2023-05-09T06:13:12.007Z,14.02
2023-05-09T06:15:43.580Z,13.23
2023-05-09T06:18:11.490Z,13.93
2023-05-09T06:20:38.951Z,13.68
2023-05-09T06:23:06.625Z,14.30
2023-05-09T06:25:34.028Z,13.88
2023-05-09T06:28:01.488Z,13.00
2023-05-09T06:30:28.977Z,13.55
2023-05-09T06:32:58.296Z,14.15
2023-05-09T06:35:25.912Z,14.32
2023-05-09T06:37:53.218Z,13.95
2023-05-09T06:40:20.745Z,13.18
2023-05-09T06:42:48.275Z,12.63
2023-05-09T06:45:16.516Z,12.57
2023-05-09T06:47:44.125Z,12.13
2023-05-09T06:50:11.766Z,12.27
2023-05-09T06:52:39.241Z,12.02
2023-05-09T06:55:07.022Z,12.45
2023-05-09T06:57:34.896Z,12.32
2023-05-09T07:00:02.469Z,11.40
2023-05-09T07:02:30.097Z,11.52
2023-05-09T07:04:57.589Z,11.57
2023-05-09T07:07:24.978Z,10.73
2023-05-09T07:09:55.199Z,9.70
2023-05-09T07:12:30.385Z,10.15
2023-05-09T07:14:58.160Z,9.63
2023-05-09T07:17:25.790Z,9.20
2023-05-09T07:19:53.322Z,9.32
2023-05-09T07:22:20.952Z,9.15
2023-05-09T07:24:48.491Z,9.63
2023-05-09T07:27:18.422Z,9.68
2023-05-09T07:29:45.965Z,8.52
2023-05-09T07:32:13.462Z,8.30
2023-05-09T07:34:40.882Z,8.23
2023-05-09T07:37:08.242Z,8.57
2023-05-09T07:39:35.668Z,8.57
2023-05-09T07:42:03.837Z,7.78
2023-05-09T07:44:31.644Z,7.40
2023-05-09T07:47:02.831Z,7.28
2023-05-09T07:49:30.191Z,7.32
2023-05-09T07:51:57.738Z,6.45
2023-05-09T07:54:25.189Z,7.25
2023-05-09T07:56:52.931Z,6.80
2023-05-09T07:59:20.390Z,6.43
2023-05-09T08:01:47.884Z,6.45
2023-05-09T08:04:15.420Z,6.07
2023-05-09T08:06:42.922Z,6.07
2023-05-09T08:09:10.579Z,6.63
2023-05-09T08:11:38.021Z,6.35
2023-05-09T08:14:05.454Z,5.82
2023-05-09T08:16:33.021Z,6.00
2023-05-09T08:19:00.575Z,5.28
2023-05-09T08:21:28.025Z,5.53
2023-05-09T08:23:55.898Z,4.90
2023-05-09T08:26:23.812Z,5.50
2023-05-09T08:28:51.216Z,6.50
2023-05-09T08:31:18.703Z,6.10
2023-05-09T08:33:46.120Z,5.88
2023-05-09T08:36:13.594Z,5.55
2023-05-09T08:38:41.399Z,5.53
2023-05-09T08:41:08.852Z,6.00
2023-05-09T08:43:36.393Z,5.97
2023-05-09T08:46:11.027Z,5.65
2023-05-09T08:48:39.706Z,5.72
2023-05-09T08:51:07.836Z,5.18
2023-05-09T08:53:35.725Z,5.10
2023-05-09T08:56:06.813Z,5.35
2023-05-09T08:58:35.047Z,5.10
2023-05-09T09:01:06.892Z,4.90
2023-05-09T09:03:34.494Z,5.03
2023-05-09T09:06:01.965Z,5.03
2023-05-09T09:08:29.876Z,4.60
2023-05-09T09:10:57.370Z,4.32
2023-05-09T09:13:24.837Z,4.75
2023-05-09T09:15:53.874Z,4.63
2023-05-09T09:18:29.119Z,4.80
2023-05-09T09:21:10.967Z,4.78
2023-05-09T09:23:40.938Z,4.65
2023-05-09T09:26:08.249Z,4.28
2023-05-09T09:28:35.881Z,3.72
2023-05-09T09:31:03.253Z,4.22
2023-05-09T09:33:30.783Z,4.30
2023-05-09T09:35:59.355Z,4.25
2023-05-09T09:38:27.052Z,4.65
2023-05-09T09:40:58.212Z,4.40
2023-05-09T09:43:29.630Z,4.13
2023-05-09T09:45:57.800Z,3.70
2023-05-09T09:48:32.265Z,4.40
2023-05-09T09:51:02.884Z,4.25
2023-05-09T09:53:32.572Z,3.92
2023-05-09T09:56:01.134Z,4.78
2023-05-09T09:58:28.527Z,4.20
2023-05-09T10:01:08.484Z,4.80
2023-05-09T10:03:37.553Z,3.90
2023-05-09T10:06:05.602Z,3.80
2023-05-09T10:08:34.076Z,4.65
2023-05-09T10:11:02.149Z,4.18
2023-05-09T10:13:29.833Z,4.45
2023-05-09T10:15:58.953Z,4.22
2023-05-09T10:18:28.879Z,3.75
2023-05-09T10:20:57.038Z,4.68
2023-05-09T10:23:25.145Z,4.05
2023-05-09T10:25:59.176Z,4.05
2023-05-09T10:28:28.746Z,4.10
2023-05-09T10:30:56.206Z,4.00
2023-05-09T10:33:28.091Z,3.90
2023-05-09T10:35:56.260Z,4.40
2023-05-09T10:38:24.925Z,4.05
2023-05-09T10:40:53.453Z,4.20
2023-05-09T10:43:24.066Z,3.80
2023-05-09T10:45:52.507Z,4.05
2023-05-09T10:48:20.059Z,3.72
2023-05-09T10:50:47.650Z,3.33
2023-05-09T10:53:17.238Z,3.50
2023-05-09T10:55:55.583Z,3.67
2023-05-09T10:58:23.199Z,4.15
2023-05-09T11:00:51.108Z,4.30
2023-05-09T11:03:19.535Z,3.90
2023-05-09T11:05:48.133Z,3.70
2023-05-09T11:08:19.394Z,3.63
2023-05-09T11:10:46.922Z,3.40
2023-05-09T11:13:14.641Z,3.28
2023-05-09T11:15:54.404Z,3.53
2023-05-09T11:18:21.890Z,3.60
2023-05-09T11:20:51.375Z,3.92
2023-05-09T11:23:23.301Z,3.80
2023-05-09T11:25:50.778Z,3.75
2023-05-09T11:28:31.285Z,3.10
2023-05-09T11:31:18.051Z,3.63
2023-05-09T11:33:47.138Z,3.70
2023-05-09T11:36:25.557Z,4.20
2023-05-09T11:39:02.946Z,3.40
2023-05-09T11:41:31.467Z,3.65
2023-05-09T11:44:00.433Z,3.35
2023-05-09T11:46:28.063Z,3.25
2023-05-09T11:48:55.574Z,3.20
2023-05-09T11:51:23.181Z,3.03
2023-05-09T11:53:51.359Z,3.30
2023-05-09T11:56:18.896Z,3.20
2023-05-09T11:58:46.978Z,3.10
2023-05-09T12:01:14.492Z,3.35
2023-05-09T12:03:46.176Z,3.35
2023-05-09T12:06:21.159Z,3.28
2023-05-09T12:08:49.132Z,3.42
2023-05-09T12:11:17.816Z,3.47
2023-05-09T12:13:47.003Z,3.30
2023-05-09T12:16:14.636Z,3.38
2023-05-09T12:18:52.723Z,2.92
2023-05-09T12:21:20.747Z,3.00
2023-05-09T12:23:50.927Z,3.30
2023-05-09T12:26:19.911Z,3.28
2023-05-09T12:28:48.298Z,3.10
2023-05-09T12:31:15.916Z,3.38
2023-05-09T12:33:43.438Z,3.25
2023-05-09T12:36:11.641Z,3.00
2023-05-09T12:38:39.389Z,2.95
2023-05-09T12:41:10.744Z,2.80
2023-05-09T12:43:49.201Z,2.95
2023-05-09T12:46:20.329Z,2.80
2023-05-09T12:48:48.749Z,2.85
2023-05-09T12:51:23.075Z,3.10
2023-05-09T12:53:50.551Z,2.80
2023-05-09T12:56:19.253Z,2.92
2023-05-09T12:58:56.434Z,2.88
2023-05-09T13:01:27.910Z,2.80
2023-05-09T13:04:05.794Z,3.25
2023-05-09T13:06:33.765Z,3.00
2023-05-09T13:09:02.408Z,3.22
2023-05-09T13:11:30.193Z,3.30
2023-05-09T13:13:58.053Z,2.88
2023-05-09T13:16:25.792Z,2.80
2023-05-09T13:18:53.260Z,2.90
2023-05-09T13:21:21.116Z,2.60
2023-05-09T13:23:50.294Z,2.85
2023-05-09T13:26:17.937Z,3.35
2023-05-09T13:28:45.444Z,2.97
2023-05-09T13:31:13.270Z,3.20
2023-05-09T13:33:40.781Z,2.97
2023-05-09T13:36:08.444Z,2.90
2023-05-09T13:38:39.002Z,2.80
2023-05-09T13:41:07.038Z,2.70
2023-05-09T13:43:35.109Z,2.88
2023-05-09T13:46:02.990Z,3.00
2023-05-09T13:48:30.356Z,2.55
2023-05-09T13:50:59.894Z,3.15
2023-05-09T13:53:27.555Z,2.72
2023-05-09T13:55:54.957Z,3.25
2023-05-09T13:58:22.709Z,3.00
2023-05-09T14:00:50.366Z,2.90
2023-05-09T14:03:17.879Z,2.47
2023-05-09T14:05:45.280Z,3.00
2023-05-09T14:08:12.740Z,2.92
2023-05-09T14:10:40.111Z,3.15
2023-05-09T14:13:08.508Z,3.00
2023-05-09T14:15:36.339Z,2.88
2023-05-09T14:18:04.101Z,2.70
2023-05-09T14:20:31.511Z,2.85
2023-05-09T14:23:00.818Z,2.70
2023-05-09T14:25:28.331Z,2.97
2023-05-09T14:27:55.736Z,2.78
2023-05-09T14:30:25.753Z,2.78
2023-05-09T14:32:53.726Z,2.72
2023-05-09T14:35:21.376Z,2.72
2023-05-09T14:37:48.825Z,3.00
2023-05-09T14:40:16.449Z,2.50
2023-05-09T14:42:44.402Z,2.60
2023-05-09T14:45:12.865Z,2.80
2023-05-09T14:47:41.297Z,2.60
2023-05-09T14:50:11.474Z,2.63
2023-05-09T14:52:39.080Z,3.08
2023-05-09T14:55:07.511Z,2.75
2023-05-09T14:57:35.011Z,3.28
2023-05-09T15:00:13.049Z,2.95
2023-05-09T15:02:44.547Z,2.70
2023-05-09T15:05:12.153Z,2.63
2023-05-09T15:07:39.845Z,2.60
2023-05-09T15:10:07.569Z,2.92
2023-05-09T15:12:35.145Z,2.92
2023-05-09T15:15:15.742Z,2.50
2023-05-09T15:17:44.425Z,2.65
2023-05-09T15:20:12.264Z,2.85
2023-05-09T15:22:40.024Z,3.10
2023-05-09T15:25:07.977Z,2.90
2023-05-09T15:27:35.450Z,2.97
2023-05-09T15:30:03.074Z,2.90
2023-05-09T15:32:30.468Z,2.42
2023-05-09T15:34:57.949Z,3.00
2023-05-09T15:37:25.416Z,2.72
2023-05-09T15:39:53.072Z,2.70
2023-05-09T15:42:20.564Z,2.90
2023-05-09T15:44:48.143Z,2.75
2023-05-09T15:47:15.766Z,3.00
2023-05-09T15:49:43.180Z,2.70
2023-05-09T15:52:10.903Z,2.42
2023-05-09T15:54:38.496Z,2.72
2023-05-09T15:57:07.166Z,2.70
2023-05-09T15:59:34.564Z,2.78
2023-05-09T16:02:02.264Z,2.80
2023-05-09T16:04:29.822Z,2.70
2023-05-09T16:06:57.399Z,2.85
2023-05-09T16:09:25.555Z,2.60
2023-05-09T16:11:52.913Z,2.55
2023-05-09T16:14:20.446Z,2.67
2023-05-09T16:16:50.019Z,2.60
2023-05-09T16:19:17.493Z,3.17
2023-05-09T16:21:46.877Z,3.13
2023-05-09T16:24:14.518Z,2.90
2023-05-09T16:26:41.979Z,3.20
2023-05-09T16:29:09.939Z,2.90
2023-05-09T16:31:37.704Z,3.10
2023-05-09T16:34:05.409Z,3.35
2023-05-09T16:36:33.600Z,2.78
2023-05-09T16:39:01.226Z,2.90
2023-05-09T16:41:28.778Z,2.80
2023-05-09T16:43:56.596Z,3.10
2023-05-09T16:46:24.455Z,2.70
2023-05-09T16:48:52.762Z,2.97
2023-05-09T16:51:20.516Z,3.38
2023-05-09T16:53:48.089Z,3.10
2023-05-09T16:56:15.501Z,3.22
2023-05-09T16:58:44.820Z,2.97
2023-05-09T17:01:12.545Z,3.17
2023-05-09T17:03:40.162Z,3.05
2023-05-09T17:06:07.970Z,3.22
2023-05-09T17:08:35.476Z,3.20
2023-05-09T17:11:02.833Z,3.28
2023-05-09T17:13:30.697Z,3.25
2023-05-09T17:15:58.388Z,3.28
2023-05-09T17:18:36.696Z,3.20
2023-05-09T17:21:06.752Z,3.15
2023-05-09T17:23:34.310Z,3.20
2023-05-09T17:26:01.794Z,3.05
2023-05-09T17:28:29.324Z,3.33
2023-05-09T17:30:59.065Z,3.28
2023-05-09T17:33:27.302Z,2.90
2023-05-09T17:35:54.953Z,3.35
2023-05-09T17:38:22.498Z,3.10
2023-05-09T17:40:50.273Z,3.05
2023-05-09T17:43:17.985Z,3.72
2023-05-09T17:45:46.400Z,3.35
2023-05-09T17:48:14.473Z,3.17
2023-05-09T17:50:43.610Z,3.20
2023-05-09T17:53:10.989Z,3.50
2023-05-09T17:55:38.678Z,3.50
2023-05-09T17:58:08.206Z,3.30
2023-05-09T18:00:35.844Z,3.60
2023-05-09T18:03:04.151Z,4.07
2023-05-09T18:05:31.715Z,3.45
2023-05-09T18:08:02.148Z,3.20
2023-05-09T18:10:29.819Z,3.95
2023-05-09T18:12:57.219Z,3.67
2023-05-09T18:15:26.211Z,4.57
2023-05-09T18:17:54.928Z,5.03
2023-05-09T18:20:22.430Z,4.72
2023-05-09T18:22:50.113Z,5.05
2023-05-09T18:25:18.277Z,5.00
2023-05-09T18:27:45.789Z,4.90
2023-05-09T18:30:13.505Z,4.43
2023-05-09T18:32:41.548Z,4.47
2023-05-09T18:35:09.839Z,4.97
2023-05-09T18:37:37.883Z,5.00
2023-05-09T18:40:05.887Z,4.45
2023-05-09T18:42:33.351Z,4.85
2023-05-09T18:45:01.015Z,4.57
2023-05-09T18:47:28.501Z,4.57
2023-05-09T18:49:56.107Z,4.90
2023-05-09T18:52:23.662Z,5.07
2023-05-09T18:54:51.290Z,5.22
2023-05-09T18:57:19.722Z,5.30
2023-05-09T18:59:47.235Z,5.47
2023-05-09T19:02:14.727Z,5.07
2023-05-09T19:04:42.126Z,5.00
2023-05-09T19:07:10.212Z,5.47
2023-05-09T19:09:37.726Z,5.78
2023-05-09T19:12:05.532Z,5.18
2023-05-09T19:14:32.950Z,5.45
2023-05-09T19:17:00.535Z,5.63
2023-05-09T19:19:28.220Z,5.63
2023-05-09T19:21:55.706Z,5.90
2023-05-09T19:24:23.250Z,6.28
2023-05-09T19:26:50.703Z,6.70
2023-05-09T19:29:18.197Z,6.28
2023-05-09T19:31:45.761Z,6.40
2023-05-09T19:34:13.622Z,6.43
2023-05-09T19:36:41.097Z,6.53
2023-05-09T19:39:09.310Z,6.00
2023-05-09T19:41:36.777Z,6.05
2023-05-09T19:44:04.166Z,6.35
2023-05-09T19:46:31.768Z,6.18
2023-05-09T19:48:59.341Z,6.10
2023-05-09T19:51:26.781Z,5.88
2023-05-09T19:53:54.205Z,6.55
2023-05-09T19:56:23.328Z,5.68
2023-05-09T19:58:50.842Z,5.93
2023-05-09T20:01:19.406Z,5.72
2023-05-09T20:03:47.360Z,6.13
2023-05-09T20:06:14.827Z,6.03
2023-05-09T20:08:42.293Z,6.53
2023-05-09T20:11:09.720Z,7.20
2023-05-09T20:13:37.389Z,8.13
2023-05-09T20:16:05.078Z,7.82
2023-05-09T20:18:36.347Z,7.40
2023-05-09T20:21:05.756Z,7.30
2023-05-09T20:23:33.294Z,7.82
2023-05-09T20:26:01.566Z,8.07
2023-05-09T20:28:29.343Z,7.55
2023-05-09T20:30:57.172Z,7.30
2023-05-09T20:33:24.571Z,7.80
2023-05-09T20:35:52.027Z,8.18
2023-05-09T20:38:19.740Z,8.23
2023-05-09T20:40:47.319Z,8.23
2023-05-09T20:43:14.852Z,8.27
2023-05-09T20:45:42.998Z,8.07
2023-05-09T20:48:10.548Z,8.30
2023-05-09T20:50:37.906Z,8.43
2023-05-09T20:53:05.367Z,9.05
2023-05-09T20:55:32.906Z,8.80
2023-05-09T20:58:00.431Z,8.60
2023-05-09T21:00:28.173Z,8.93
2023-05-09T21:02:58.440Z,8.80
2023-05-09T21:05:26.419Z,8.68
2023-05-09T21:07:53.829Z,8.85
2023-05-09T21:10:21.394Z,8.90
2023-05-09T21:12:49.102Z,8.50
2023-05-09T21:15:16.538Z,9.30
2023-05-09T21:17:44.036Z,8.88
2023-05-09T21:20:11.711Z,9.57
2023-05-09T21:22:39.363Z,9.45
2023-05-09T21:25:07.097Z,10.15
2023-05-09T21:27:34.566Z,10.30
2023-05-09T21:30:02.118Z,10.27
2023-05-09T21:32:29.738Z,9.77
2023-05-09T21:34:57.339Z,10.23
2023-05-09T21:37:24.687Z,10.57
2023-05-09T21:39:52.060Z,9.63
2023-05-09T21:42:19.417Z,9.77
2023-05-09T21:44:46.780Z,9.13
2023-05-09T21:47:14.440Z,9.85
2023-05-09T21:49:41.984Z,9.98
2023-05-09T21:52:09.494Z,10.23
2023-05-09T21:54:36.898Z,10.02
2023-05-09T21:57:04.348Z,9.63
2023-05-09T21:59:32.968Z,10.30
2023-05-09T22:02:00.513Z,9.57
2023-05-09T22:04:28.091Z,9.32
2023-05-09T22:06:55.467Z,10.30
2023-05-09T22:09:23.637Z,9.73
2023-05-09T22:11:51.930Z,9.75
2023-05-09T22:14:22.419Z,9.85
2023-05-09T22:16:49.818Z,10.20
2023-05-09T22:19:17.649Z,9.80
2023-05-09T22:21:45.179Z,10.70
2023-05-09T22:24:12.781Z,10.35
2023-05-09T22:26:40.185Z,10.63
2023-05-09T22:29:07.844Z,10.63
2023-05-09T22:31:36.035Z,10.95
2023-05-09T22:34:03.952Z,11.00
2023-05-09T22:36:32.432Z,11.18
2023-05-09T22:39:00.072Z,11.00
2023-05-09T22:41:27.704Z,11.25
2023-05-09T22:43:55.158Z,11.85
2023-05-09T22:46:22.739Z,11.80
2023-05-09T22:48:50.225Z,11.10
2023-05-09T22:51:17.574Z,11.40
2023-05-09T22:53:45.006Z,10.57
2023-05-09T22:56:12.859Z,11.57
2023-05-09T22:58:40.280Z,10.40
2023-05-09T23:01:07.815Z,10.20
2023-05-09T23:03:35.246Z,10.30
2023-05-09T23:06:02.725Z,10.90
2023-05-09T23:08:30.165Z,10.35
2023-05-09T23:10:57.572Z,11.10
2023-05-09T23:13:25.141Z,11.15
2023-05-09T23:15:53.138Z,10.55
2023-05-09T23:18:22.727Z,11.02
2023-05-09T23:20:50.513Z,11.23
2023-05-09T23:23:18.068Z,11.43
2023-05-09T23:25:45.607Z,12.60
2023-05-09T23:28:12.929Z,12.32
2023-05-09T23:30:40.561Z,12.57
2023-05-09T23:33:08.103Z,12.50
2023-05-09T23:35:36.130Z,13.05
2023-05-09T23:38:04.816Z,12.63
2023-05-09T23:40:32.253Z,12.32
2023-05-09T23:42:59.654Z,13.30
2023-05-09T23:45:27.700Z,12.63
2023-05-09T23:47:56.195Z,12.27
2023-05-09T23:50:23.811Z,12.38
2023-05-09T23:52:51.267Z,13.60
2023-05-09T23:55:18.796Z,13.40
2023-05-09T23:57:46.310Z,13.32
